Terminal Aerodrome Forecast
Issued by NWS

Home | Current Version | Previous Version | Text Only | Print | Product List | Glossary On
Versions: 1 2 3 4 5 6 7 8 9 10 11 12 13 14 15 16 17 18 19
000
FTAK31 PAFA 212339
TAFATA
TAF
PATA 212339Z 2200/2224 08014G21KT P6SM BKN150
     FM220300 09013G20KT P6SM VCSH SCT025 OVC035
     FM220800 07010G16KT 4SM -RA BR SCT010 OVC020
     FM221800 07012KT P6SM VCSH BKN028 OVC050=

USA.gov is the U.S. government's official web portal to all federal, state and local government web resources and services.